Terminal Aerodrome Forecast
Issued by NWS

Home | Current Version | Previous Version | Text Only | Print | Product List | Glossary On
Versions: 1 2 3 4 5 6 7 8 9 10 11 12 13 14 15 16 17 18 19 20
000
FTUS41 KPBZ 290842 AAB
TAFAGC
TAF AMD
KAGC 290842Z 2909/3006 09010KT 6SM BR VCSH OVC020
      TEMPO 2909/2910 2SM SHRA BR OVC008
     FM291400 11013G21KT P6SM -SHRA OVC020
     FM300100 09012KT 5SM -SHRA OVC015=

USA.gov is the U.S. government's official web portal to all federal, state and local government web resources and services.